Time;durP1;ratioP1;P1;durP2;ratioP2;P2;SDS_P1;SDS_P2;PMS_P1;PMS_P2;Temp;Humidity;BMP_temperature;BMP_pressure;BME280_temperature;BME280_humidity;BME280_pressure;Samples;Min_cycle;Max_cycle;Signal;HPM_P1;HPM_P2
2023/03/24 00:00:09;;;;;;;;;;;;;;;11.71;100.00;99810.03;10442928;28;19924;-68
2023/03/24 00:05:13;;;;;;;;;;;;;;;11.83;100.00;99805.59;10442040;28;19925;-67
2023/03/24 00:10:17;;;;;;;;;;;;;;;11.60;100.00;99796.94;10459338;28;19932;-67
2023/03/24 00:15:20;;;;;;;;;;;;;;;11.81;100.00;99790.97;10441726;28;19925;-67
2023/03/24 00:20:23;;;;;;;;;;;;;;;11.86;100.00;99797.50;10441614;28;20314;-67
2023/03/24 00:25:32;;;;;;;;;;;;;;;11.54;100.00;99779.06;10459029;28;19925;-66
2023/03/24 00:30:34;;;;;;;;;;;;;;;11.57;100.00;99768.34;10457343;28;19925;-68
2023/03/24 00:35:38;;;;;;;;;;;;;;;11.54;100.00;99755.47;10458575;28;20380;-67
2023/03/24 00:40:44;;;;;;;;;;;;;;;11.55;100.00;99758.91;10458385;28;19978;-70
2023/03/24 00:45:47;;;;;;;;;;;;;;;11.59;100.00;99758.56;10457393;28;19925;-67
2023/03/24 00:50:50;;;;;;;;;;;;;;;11.64;100.00;99755.59;10458049;28;20268;-66
2023/03/24 00:55:52;;;;;;;;;;;;;;;11.75;100.00;99745.09;10439388;28;20372;-66
2023/03/24 01:00:55;;;;;;;;;;;;;;;11.81;100.00;99746.38;10457912;28;19925;-67
2023/03/24 01:06:01;;;;;;;;;;;;;;;11.89;100.00;99723.84;10439503;28;19925;-67
2023/03/24 01:11:05;;;;;;;;;;;;;;;11.95;100.00;99725.16;10440580;28;19931;-66
2023/03/24 01:16:07;;;;;;;;;;;;;;;11.89;100.00;99710.72;10439215;28;20437;-67
2023/03/24 01:21:10;;;;;;;;;;;;;;;12.02;100.00;99705.34;10457584;28;20046;-66
2023/03/24 01:26:12;;;;;;;;;;;;;;;12.03;100.00;99704.38;10439290;28;20268;-66
2023/03/24 01:31:15;;;;;;;;;;;;;;;11.98;100.00;99689.97;10456952;28;19925;-66
2023/03/24 01:36:17;;;;;;;;;;;;;;;11.87;100.00;99673.28;10456757;28;19928;-66
2023/03/24 01:41:19;;;;;;;;;;;;;;;12.01;100.00;99674.81;10468414;28;20330;-66
2023/03/24 01:46:22;;;;;;;;;;;;;;;11.99;100.00;99676.75;10470892;28;19928;-66
2023/03/24 01:51:34;;;;;;;;;;;;;;;11.89;100.00;99674.00;10452472;28;19925;-66
2023/03/24 01:56:37;;;;;;;;;;;;;;;11.95;100.00;99656.13;10469207;28;19924;-66
2023/03/24 02:01:39;;;;;;;;;;;;;;;12.00;100.00;99665.31;10453037;28;19928;-66
2023/03/24 02:06:42;;;;;;;;;;;;;;;11.89;100.00;99660.06;10452256;28;19924;-66
2023/03/24 02:11:45;;;;;;;;;;;;;;;12.06;100.00;99643.81;10469346;28;19973;-66
2023/03/24 02:16:50;;;;;;;;;;;;;;;11.90;100.00;99627.63;10469618;28;19929;-66
2023/03/24 02:22:02;;;;;;;;;;;;;;;11.98;100.00;99634.91;10470346;28;19925;-65
2023/03/24 02:27:18;;;;;;;;;;;;;;;12.01;100.00;99630.22;10470272;28;19971;-65
2023/03/24 02:32:30;;;;;;;;;;;;;;;11.95;100.00;99627.28;10450765;28;20028;-66
2023/03/24 02:37:41;;;;;;;;;;;;;;;11.89;100.00;99624.16;10451660;28;19929;-66
2023/03/24 02:42:46;;;;;;;;;;;;;;;12.12;100.00;99637.25;10469344;28;19928;-67
2023/03/24 02:47:49;;;;;;;;;;;;;;;12.00;100.00;99640.84;10469483;28;19931;-66
2023/03/24 02:52:55;;;;;;;;;;;;;;;12.09;100.00;99634.84;10462761;28;19974;-66
2023/03/24 02:58:00;;;;;;;;;;;;;;;12.05;100.00;99634.28;10444754;28;19970;-66
2023/03/24 03:03:06;;;;;;;;;;;;;;;12.17;100.00;99634.22;10444797;28;19954;-66
2023/03/24 03:08:09;;;;;;;;;;;;;;;12.02;100.00;99636.31;10444512;28;20011;-66
2023/03/24 03:13:13;;;;;;;;;;;;;;;12.12;100.00;99639.84;10428485;28;19929;-67
2023/03/24 03:18:18;;;;;;;;;;;;;;;12.23;100.00;99628.47;10461939;28;19951;-67
2023/03/24 03:23:23;;;;;;;;;;;;;;;11.97;100.00;99652.44;10443928;28;19929;-66
2023/03/24 03:28:28;;;;;;;;;;;;;;;11.85;100.00;99711.06;10442880;28;20384;-66
2023/03/24 03:33:38;;;;;;;;;;;;;;;11.35;100.00;99698.41;10459915;28;19936;-66
2023/03/24 03:38:58;;;;;;;;;;;;;;;11.03;100.00;99721.84;10458889;28;19935;-66
2023/03/24 03:44:01;;;;;;;;;;;;;;;11.04;100.00;99713.03;10461141;28;19932;-66
2023/03/24 03:49:03;;;;;;;;;;;;;;;10.74;100.00;99722.25;10442942;28;19929;-66
2023/03/24 03:54:06;;;;;;;;;;;;;;;10.78;100.00;99744.66;10442268;28;19975;-66
2023/03/24 03:59:09;;;;;;;;;;;;;;;10.56;100.00;99771.59;10460280;28;19928;-66
2023/03/24 04:04:18;;;;;;;;;;;;;;;10.44;100.00;99770.72;10442041;28;19929;-66
2023/03/24 04:09:30;;;;;;;;;;;;;;;10.24;100.00;99780.00;10459740;28;19928;-66
2023/03/24 04:14:36;;;;;;;;;;;;;;;10.18;100.00;99788.28;10443955;28;20356;-67
2023/03/24 04:19:41;;;;;;;;;;;;;;;10.22;100.00;99794.94;10459867;28;19925;-67
2023/03/24 04:24:43;;;;;;;;;;;;;;;10.09;100.00;99812.47;10457904;28;19935;-67
2023/03/24 04:30:05;;;;;;;;;;;;;;;10.09;100.00;99817.72;10459118;28;19925;-67
2023/03/24 04:35:09;;;;;;;;;;;;;;;10.02;100.00;99831.22;10440876;28;19971;-66
2023/03/24 04:40:11;;;;;;;;;;;;;;;10.03;100.00;99853.78;10439847;28;20392;-66
2023/03/24 04:45:14;;;;;;;;;;;;;;;10.22;100.00;99865.56;10441282;28;19925;-66
2023/03/24 04:50:29;;;;;;;;;;;;;;;10.14;100.00;99866.13;10458379;28;19925;-66
2023/03/24 04:55:38;;;;;;;;;;;;;;;10.01;100.00;99862.69;10438995;28;19936;-66
2023/03/24 05:00:40;;;;;;;;;;;;;;;9.81;100.00;99862.28;10440147;28;19947;-66
2023/03/24 05:05:43;;;;;;;;;;;;;;;9.83;100.00;99880.50;10458240;28;19925;-66
2023/03/24 05:10:45;;;;;;;;;;;;;;;9.74;100.00;99876.72;10439301;28;19925;-66
2023/03/24 05:15:47;;;;;;;;;;;;;;;9.64;100.00;99892.19;10456998;28;19929;-66
2023/03/24 05:20:50;;;;;;;;;;;;;;;9.56;100.00;99896.28;10458568;28;19924;-66
2023/03/24 05:25:52;;;;;;;;;;;;;;;9.54;100.00;99901.59;10440054;28;19925;-66
2023/03/24 05:30:55;;;;;;;;;;;;;;;9.45;100.00;99905.69;10438035;28;19925;-66
2023/03/24 05:35:57;;;;;;;;;;;;;;;9.62;100.00;99919.41;10456520;28;20329;-66
2023/03/24 05:40:59;;;;;;;;;;;;;;;9.61;100.00;99923.75;10456881;28;20292;-66
2023/03/24 05:46:01;;;;;;;;;;;;;;;9.69;100.00;99932.88;10456544;28;19932;-66
2023/03/24 05:51:04;;;;;;;;;;;;;;;9.56;100.00;99944.16;10456641;28;19931;-66
2023/03/24 05:56:10;;;;;;;;;;;;;;;9.43;100.00;99935.44;10454255;28;19978;-66
2023/03/24 06:01:12;;;;;;;;;;;;;;;9.76;100.00;99947.22;10456523;28;19968;-66
2023/03/24 06:06:15;;;;;;;;;;;;;;;9.85;100.00;99954.41;10469332;28;20375;-66
2023/03/24 06:11:17;;;;;;;;;;;;;;;9.79;100.00;99967.94;10457820;28;20316;-66
2023/03/24 06:16:22;;;;;;;;;;;;;;;9.65;100.00;99966.25;10456594;28;19975;-66
2023/03/24 06:21:29;;;;;;;;;;;;;;;9.63;100.00;99968.97;10455890;28;19931;-66
2023/03/24 06:26:33;;;;;;;;;;;;;;;9.83;100.00;99978.06;10460523;28;19967;-66
2023/03/24 06:31:36;;;;;;;;;;;;;;;9.96;100.00;99972.00;10491754;28;20287;-66
2023/03/24 06:36:39;;;;;;;;;;;;;;;10.22;100.00;99983.28;10505013;28;19924;-66
2023/03/24 06:41:42;;;;;;;;;;;;;;;10.48;100.00;99986.75;10504506;28;20398;-66
2023/03/24 06:46:44;;;;;;;;;;;;;;;10.27;100.00;99994.31;10504625;28;19970;-66
2023/03/24 06:51:47;;;;;;;;;;;;;;;10.30;100.00;100007.16;10504817;28;19924;-66
2023/03/24 06:56:49;;;;;;;;;;;;;;;10.62;100.00;100011.97;10504548;28;19925;-67
2023/03/24 07:01:52;;;;;;;;;;;;;;;10.97;100.00;100003.38;10504385;28;20015;-67
2023/03/24 07:06:54;;;;;;;;;;;;;;;10.78;100.00;100009.94;10503596;28;20011;-66
2023/03/24 07:12:17;;;;;;;;;;;;;;;10.93;98.85;100010.63;10489248;28;19963;-67
2023/03/24 07:17:19;;;;;;;;;;;;;;;11.27;95.98;100010.81;10503194;28;20275;-67
2023/03/24 07:22:21;;;;;;;;;;;;;;;11.59;93.54;100025.13;10503630;28;19978;-67
2023/03/24 07:27:23;;;;;;;;;;;;;;;11.51;91.97;100025.69;10502836;28;20030;-67
2023/03/24 07:32:27;;;;;;;;;;;;;;;11.27;91.87;100023.09;10502536;28;19970;-67
2023/03/24 07:37:29;;;;;;;;;;;;;;;11.21;91.50;100024.34;10484908;28;19939;-66
2023/03/24 07:42:32;;;;;;;;;;;;;;;11.58;89.02;100005.94;10502204;28;19928;-66
2023/03/24 07:47:34;;;;;;;;;;;;;;;11.83;87.44;100010.19;10502031;28;19925;-67
2023/03/24 07:52:37;;;;;;;;;;;;;;;12.00;86.63;100005.50;10502480;28;19930;-67
2023/03/24 07:57:40;;;;;;;;;;;;;;;11.98;85.72;100010.03;10484071;28;20265;-66
2023/03/24 08:02:48;;;;;;;;;;;;;;;12.94;84.79;100027.91;10483920;28;20011;-67
2023/03/24 08:07:54;;;;;;;;;;;;;;;13.13;82.14;100031.72;10483539;28;19974;-67
2023/03/24 08:12:57;;;;;;;;;;;;;;;12.27;82.76;100045.38;10500994;28;19987;-67
2023/03/24 08:17:59;;;;;;;;;;;;;;;12.32;84.23;100044.19;10482979;28;19924;-67
2023/03/24 08:23:03;;;;;;;;;;;;;;;12.31;83.16;100039.91;10500551;28;20362;-67
2023/03/24 08:28:06;;;;;;;;;;;;;;;12.88;80.48;100028.44;10500885;28;19928;-66
2023/03/24 08:33:10;;;;;;;;;;;;;;;13.15;79.62;100048.22;10499980;28;20421;-67
2023/03/24 08:38:14;;;;;;;;;;;;;;;13.24;80.04;100060.59;10483119;28;20011;-67
2023/03/24 08:43:22;;;;;;;;;;;;;;;12.81;81.80;100069.28;10500507;28;19924;-67
2023/03/24 08:48:24;;;;;;;;;;;;;;;12.25;82.47;100083.19;10499438;28;19924;-67
2023/03/24 08:53:26;;;;;;;;;;;;;;;12.80;80.69;100078.09;10500026;28;19924;-67
2023/03/24 08:58:29;;;;;;;;;;;;;;;13.52;76.40;100079.44;10515404;28;19928;-67
2023/03/24 09:03:31;;;;;;;;;;;;;;;14.79;72.50;100077.66;10499094;28;19978;-67
2023/03/24 09:08:33;;;;;;;;;;;;;;;13.27;75.78;100098.97;10499020;28;19946;-67
2023/03/24 09:13:35;;;;;;;;;;;;;;;13.83;74.60;100084.81;10498856;28;19925;-67
2023/03/24 09:18:37;;;;;;;;;;;;;;;12.75;76.89;100090.75;10498836;28;19931;-67
2023/03/24 09:23:40;;;;;;;;;;;;;;;12.66;77.08;100092.31;10498618;28;20291;-67
2023/03/24 09:28:42;;;;;;;;;;;;;;;13.25;76.26;100101.72;10498315;28;20322;-67
2023/03/24 09:33:44;;;;;;;;;;;;;;;13.96;76.63;100097.81;10498363;28;20375;-67
2023/03/24 09:38:46;;;;;;;;;;;;;;;13.64;74.96;100101.28;10498211;28;19924;-67
2023/03/24 09:43:55;;;;;;;;;;;;;;;12.78;76.60;100117.63;10499894;22;19940;-65
2023/03/24 09:48:57;;;;;;;;;;;;;;;12.92;78.48;100120.97;10455528;28;20338;-66
2023/03/24 09:54:21;;;;;;;;;;;;;;;14.70;71.63;100124.09;10455332;28;19975;-67
2023/03/24 09:59:28;;;;;;;;;;;;;;;15.31;70.62;100125.81;10458238;28;19929;-65
2023/03/24 10:04:31;;;;;;;;;;;;;;;13.93;72.97;100127.84;10465402;28;19925;-67
2023/03/24 10:09:33;;;;;;;;;;;;;;;13.67;73.99;100133.44;10464437;28;20362;-67
2023/03/24 10:14:42;;;;;;;;;;;;;;;12.68;74.52;100149.97;10463526;28;19932;-66
2023/03/24 10:19:44;;;;;;;;;;;;;;;12.60;78.47;100153.19;10464788;28;19975;-66
2023/03/24 10:24:47;;;;;;;;;;;;;;;12.83;78.47;100144.38;10464475;28;19924;-65
2023/03/24 10:29:50;;;;;;;;;;;;;;;12.43;79.24;100157.09;10464338;28;19924;-65
2023/03/24 10:34:58;;;;;;;;;;;;;;;14.52;76.11;100151.97;10462668;28;19933;-65
2023/03/24 10:40:00;;;;;;;;;;;;;;;16.58;67.80;100151.47;10463940;28;19925;-66
2023/03/24 10:45:03;;;;;;;;;;;;;;;16.01;65.93;100149.56;10462083;28;19936;-66
2023/03/24 10:50:06;;;;;;;;;;;;;;;14.24;73.52;100149.84;10462297;28;19931;-66
2023/03/24 10:55:15;;;;;;;;;;;;;;;12.87;78.23;100175.66;10461609;28;20380;-66
2023/03/24 11:00:25;;;;;;;;;;;;;;;13.68;81.69;100181.63;10461773;28;19925;-66
2023/03/24 11:05:29;;;;;;;;;;;;;;;12.51;85.78;100182.75;10461201;28;19925;-66
2023/03/24 11:10:31;;;;;;;;;;;;;;;13.61;84.91;100180.44;10460692;28;20385;-66
2023/03/24 11:15:35;;;;;;;;;;;;;;;12.64;88.95;100186.97;10461895;28;20284;-66
2023/03/24 11:20:38;;;;;;;;;;;;;;;12.70;90.27;100190.91;10461175;28;19974;-66
2023/03/24 11:25:40;;;;;;;;;;;;;;;12.69;88.73;100186.59;10462139;28;19932;-66
2023/03/24 11:30:52;;;;;;;;;;;;;;;12.16;89.93;100186.22;10460198;28;20346;-66
2023/03/24 11:35:55;;;;;;;;;;;;;;;12.73;89.18;100185.44;10460428;28;20023;-66
2023/03/24 11:41:08;;;;;;;;;;;;;;;12.82;86.78;100176.84;10461070;28;20387;-66
2023/03/24 11:46:12;;;;;;;;;;;;;;;12.58;89.02;100170.84;10459287;28;19971;-66
2023/03/24 11:51:15;;;;;;;;;;;;;;;12.73;89.98;100167.06;10460130;28;19924;-66
2023/03/24 11:56:23;;;;;;;;;;;;;;;12.75;87.88;100175.63;10459706;28;19928;-66
2023/03/24 12:01:26;;;;;;;;;;;;;;;12.94;87.20;100169.81;10460680;28;20260;-65
2023/03/24 12:06:45;;;;;;;;;;;;;;;12.64;86.95;100170.38;10458585;28;19933;-65
2023/03/24 12:11:54;;;;;;;;;;;;;;;12.21;94.32;100208.56;10458363;28;19925;-66
2023/03/24 12:17:25;;;;;;;;;;;;;;;11.41;100.00;100218.66;10460101;28;19974;-64
2023/03/24 12:22:32;;;;;;;;;;;;;;;11.14;100.00;100215.22;10446886;28;19925;-65
2023/03/24 12:27:46;;;;;;;;;;;;;;;11.32;100.00;100210.50;10459667;28;20003;-65
2023/03/24 12:33:15;;;;;;;;;;;;;;;11.61;100.00;100220.69;10458273;28;19971;-65
2023/03/24 12:38:23;;;;;;;;;;;;;;;11.89;100.00;100211.69;10428044;28;19928;-64
2023/03/24 12:43:29;;;;;;;;;;;;;;;11.43;100.00;100219.38;10459157;28;19932;-65
2023/03/24 12:48:50;;;;;;;;;;;;;;;11.18;100.00;100210.63;10456894;28;20268;-65
2023/03/24 12:54:04;;;;;;;;;;;;;;;12.34;100.00;100199.75;10457956;28;19932;-65
2023/03/24 12:59:10;;;;;;;;;;;;;;;12.97;100.00;100185.34;10456640;28;20380;-65
2023/03/24 13:04:12;;;;;;;;;;;;;;;14.06;100.00;100172.41;10456583;28;19925;-65
2023/03/24 13:09:17;;;;;;;;;;;;;;;16.63;94.42;100165.91;10458259;28;19925;-66
2023/03/24 13:14:22;;;;;;;;;;;;;;;18.44;82.72;100156.50;10456655;28;19979;-66
2023/03/24 13:19:24;;;;;;;;;;;;;;;18.26;74.04;100146.78;10455975;28;19928;-66
2023/03/24 13:24:26;;;;;;;;;;;;;;;19.16;71.46;100137.72;10455961;28;19995;-67
2023/03/24 13:29:28;;;;;;;;;;;;;;;18.89;66.42;100124.50;10457069;28;19929;-67
2023/03/24 13:34:57;;;;;;;;;;;;;;;19.05;61.35;100117.63;10456329;28;20366;-67
2023/03/24 13:40:00;;;;;;;;;;;;;;;20.36;63.23;100104.53;10455501;28;19924;-67
2023/03/24 13:45:03;;;;;;;;;;;;;;;16.43;67.22;100114.09;10455744;28;20015;-67
2023/03/24 13:50:06;;;;;;;;;;;;;;;16.25;70.37;100121.88;10455914;28;19931;-67
2023/03/24 13:55:09;;;;;;;;;;;;;;;14.06;74.22;100135.56;10455257;28;20334;-67
2023/03/24 14:00:16;;;;;;;;;;;;;;;13.41;76.83;100168.88;10456931;28;19925;-67
2023/03/24 14:05:21;;;;;;;;;;;;;;;13.90;84.26;100178.94;10456355;28;19925;-66
2023/03/24 14:10:23;;;;;;;;;;;;;;;12.64;86.58;100180.88;10456809;28;20023;-66
2023/03/24 14:15:29;;;;;;;;;;;;;;;12.74;91.81;100178.38;10455399;28;19971;-66
2023/03/24 14:20:32;;;;;;;;;;;;;;;13.01;90.75;100162.28;10456652;28;19925;-66
2023/03/24 14:25:35;;;;;;;;;;;;;;;13.01;90.64;100151.78;10454763;28;19929;-66
2023/03/24 14:30:39;;;;;;;;;;;;;;;12.79;89.68;100156.09;10454540;28;20330;-66
2023/03/24 14:35:45;;;;;;;;;;;;;;;12.35;90.25;100160.28;10437901;28;19928;-66
2023/03/24 14:40:48;;;;;;;;;;;;;;;12.34;92.45;100184.88;10455110;28;19972;-66
2023/03/24 14:45:55;;;;;;;;;;;;;;;11.14;100.00;100194.25;10455727;28;19925;-65
2023/03/24 14:50:58;;;;;;;;;;;;;;;10.81;100.00;100176.47;10462448;28;20015;-64
2023/03/24 14:56:00;;;;;;;;;;;;;;;11.05;100.00;100170.50;10463276;28;19929;-64
2023/03/24 15:01:03;;;;;;;;;;;;;;;11.34;100.00;100185.00;10462041;28;19929;-64
2023/03/24 15:06:18;;;;;;;;;;;;;;;12.03;100.00;100179.25;10445062;28;20376;-65
2023/03/24 15:11:21;;;;;;;;;;;;;;;13.46;92.35;100164.09;10461483;28;19929;-64
2023/03/24 15:16:25;;;;;;;;;;;;;;;15.78;81.71;100149.84;10462396;28;19928;-65
2023/03/24 15:21:27;;;;;;;;;;;;;;;16.33;81.28;100132.59;10461305;28;19925;-65
2023/03/24 15:26:30;;;;;;;;;;;;;;;18.30;74.51;100129.56;10461584;28;20314;-65
2023/03/24 15:31:32;;;;;;;;;;;;;;;16.61;73.28;100127.38;10462265;28;19928;-65
2023/03/24 15:36:38;;;;;;;;;;;;;;;13.91;79.38;100124.50;10461674;28;19929;-65
2023/03/24 15:41:40;;;;;;;;;;;;;;;16.07;81.05;100109.41;10459607;28;20298;-66
2023/03/24 15:46:42;;;;;;;;;;;;;;;14.70;76.53;100110.09;10460770;28;19951;-66
2023/03/24 15:51:49;;;;;;;;;;;;;;;13.70;83.73;100108.66;10461278;28;19979;-66
2023/03/24 15:56:58;;;;;;;;;;;;;;;13.88;83.14;100109.78;10459510;28;19925;-66
2023/03/24 16:02:00;;;;;;;;;;;;;;;13.56;82.77;100105.34;10460193;28;19947;-66
2023/03/24 16:07:03;;;;;;;;;;;;;;;12.67;88.77;100103.66;10459387;28;19931;-66
2023/03/24 16:12:09;;;;;;;;;;;;;;;12.66;89.97;100105.44;10459751;28;20380;-66
2023/03/24 16:17:11;;;;;;;;;;;;;;;12.98;89.04;100102.94;10460178;28;19925;-66
2023/03/24 16:22:15;;;;;;;;;;;;;;;12.86;92.17;100101.28;10459413;28;20418;-66
2023/03/24 16:27:18;;;;;;;;;;;;;;;14.06;88.98;100102.19;10458672;28;19925;-66
2023/03/24 16:32:20;;;;;;;;;;;;;;;13.02;90.86;100090.38;10459125;28;20435;-66
2023/03/24 16:37:22;;;;;;;;;;;;;;;13.34;95.55;100084.41;10458756;28;19925;-66
2023/03/24 16:42:24;;;;;;;;;;;;;;;18.12;68.32;100071.34;10458536;28;20346;-66
2023/03/24 16:47:27;;;;;;;;;;;;;;;16.79;68.25;100067.47;10458240;28;19924;-66
2023/03/24 16:52:29;;;;;;;;;;;;;;;13.46;85.23;100075.50;10457631;28;19931;-66
2023/03/24 16:57:31;;;;;;;;;;;;;;;12.42;95.41;100084.53;10458639;28;19925;-66
2023/03/24 17:02:36;;;;;;;;;;;;;;;13.11;94.35;100086.19;10457880;28;19998;-66
2023/03/24 17:07:38;;;;;;;;;;;;;;;12.83;98.39;100094.47;10456774;28;19974;-66
2023/03/24 17:12:40;;;;;;;;;;;;;;;12.52;100.00;100095.97;10458000;28;19928;-66
2023/03/24 17:17:43;;;;;;;;;;;;;;;12.56;96.26;100086.94;10457954;28;19970;-66
2023/03/24 17:22:45;;;;;;;;;;;;;;;11.75;98.10;100101.72;10457935;28;19932;-66
2023/03/24 17:27:48;;;;;;;;;;;;;;;12.01;99.71;100102.44;10456000;28;19932;-66
2023/03/24 17:32:51;;;;;;;;;;;;;;;12.06;96.56;100108.19;10456581;28;19925;-66
2023/03/24 17:37:54;;;;;;;;;;;;;;;11.73;98.35;100106.22;10456801;28;20265;-66
2023/03/24 17:42:56;;;;;;;;;;;;;;;11.61;99.64;100094.03;10456860;28;19975;-66
2023/03/24 17:47:58;;;;;;;;;;;;;;;11.49;100.00;100087.88;10456653;28;19950;-66
2023/03/24 17:53:00;;;;;;;;;;;;;;;11.38;100.00;100085.19;10456282;28;20280;-65
2023/03/24 17:58:03;;;;;;;;;;;;;;;11.34;100.00;100082.78;10453057;28;20273;-65
2023/03/24 18:03:05;;;;;;;;;;;;;;;11.42;100.00;100081.44;10447714;28;19929;-65
2023/03/24 18:08:07;;;;;;;;;;;;;;;11.45;96.17;100082.03;10425093;28;19932;-65
2023/03/24 18:13:10;;;;;;;;;;;;;;;11.04;99.99;100083.19;10414956;28;19925;-65
2023/03/24 18:18:12;;;;;;;;;;;;;;;11.02;100.00;100076.41;10413621;28;19925;-65
2023/03/24 18:23:15;;;;;;;;;;;;;;;10.97;100.00;100074.09;10455385;28;19925;-65
2023/03/24 18:28:17;;;;;;;;;;;;;;;11.06;100.00;100083.09;10434356;28;20438;-65
2023/03/24 18:33:21;;;;;;;;;;;;;;;11.37;95.98;100073.88;10459440;28;20372;-65
2023/03/24 18:38:23;;;;;;;;;;;;;;;10.97;100.00;100071.50;10463254;28;20284;-65
2023/03/24 18:43:26;;;;;;;;;;;;;;;10.75;100.00;100117.50;10459786;28;19928;-65
2023/03/24 18:48:28;;;;;;;;;;;;;;;10.45;100.00;100112.59;10461793;28;19924;-65
2023/03/24 18:53:33;;;;;;;;;;;;;;;10.87;100.00;100101.88;10461229;28;19928;-65
2023/03/24 18:58:37;;;;;;;;;;;;;;;10.59;100.00;100122.97;10462584;28;19971;-65
2023/03/24 19:03:40;;;;;;;;;;;;;;;10.54;100.00;100105.88;10462131;28;20318;-65
2023/03/24 19:08:44;;;;;;;;;;;;;;;10.11;100.00;100104.34;10460953;28;19933;-64
2023/03/24 19:13:48;;;;;;;;;;;;;;;10.26;100.00;100105.09;10460809;28;19933;-64
2023/03/24 19:18:51;;;;;;;;;;;;;;;10.21;100.00;100112.44;10421341;28;19925;-64
2023/03/24 19:23:53;;;;;;;;;;;;;;;10.06;100.00;100111.66;10453004;28;19925;-65
2023/03/24 19:28:56;;;;;;;;;;;;;;;9.90;100.00;100121.44;10420924;28;19929;-65
2023/03/24 19:33:58;;;;;;;;;;;;;;;10.12;100.00;100119.13;10426229;28;19925;-66
2023/03/24 19:39:00;;;;;;;;;;;;;;;9.87;100.00;100117.28;10460972;28;19925;-66
2023/03/24 19:44:03;;;;;;;;;;;;;;;9.77;100.00;100106.56;10460045;28;20291;-67
2023/03/24 19:49:05;;;;;;;;;;;;;;;9.93;100.00;100106.41;10459976;28;20365;-67
2023/03/24 19:54:07;;;;;;;;;;;;;;;9.81;100.00;100099.38;10460592;28;19925;-67
2023/03/24 19:59:09;;;;;;;;;;;;;;;9.75;100.00;100092.78;10460918;28;19970;-67
2023/03/24 20:04:12;;;;;;;;;;;;;;;9.70;100.00;100097.47;10430764;28;19929;-67
2023/03/24 20:09:14;;;;;;;;;;;;;;;9.52;100.00;100101.25;10423769;28;19925;-67
2023/03/24 20:14:19;;;;;;;;;;;;;;;9.17;100.00;100093.88;10419157;28;19925;-67
2023/03/24 20:19:21;;;;;;;;;;;;;;;9.60;100.00;100086.75;10418190;28;20278;-67
2023/03/24 20:24:23;;;;;;;;;;;;;;;9.46;100.00;100089.41;10452858;28;19970;-67
2023/03/24 20:29:25;;;;;;;;;;;;;;;9.58;100.00;100067.72;10458388;28;19929;-67
2023/03/24 20:34:28;;;;;;;;;;;;;;;9.42;100.00;100080.09;10458880;28;19979;-67
2023/03/24 20:39:30;;;;;;;;;;;;;;;9.20;100.00;100070.19;10459130;28;19951;-67
2023/03/24 20:44:33;;;;;;;;;;;;;;;9.35;100.00;100074.44;10457464;28;19928;-67
2023/03/24 20:49:36;;;;;;;;;;;;;;;9.17;100.00;100079.03;10473066;28;19928;-67
2023/03/24 20:54:38;;;;;;;;;;;;;;;9.26;100.00;100077.63;10458897;28;20015;-67
2023/03/24 20:59:41;;;;;;;;;;;;;;;9.19;100.00;100087.59;10458158;28;19970;-67
2023/03/24 21:04:43;;;;;;;;;;;;;;;9.23;100.00;100078.66;10457216;28;20380;-67
2023/03/24 21:09:45;;;;;;;;;;;;;;;9.47;100.00;100080.66;10458355;28;19935;-67
2023/03/24 21:14:47;;;;;;;;;;;;;;;9.34;100.00;100072.75;10456951;28;20375;-67
2023/03/24 21:19:53;;;;;;;;;;;;;;;9.40;100.00;100068.91;10456817;28;19925;-67
2023/03/24 21:24:58;;;;;;;;;;;;;;;9.36;100.00;100064.81;10457156;28;20371;-67
2023/03/24 21:30:00;;;;;;;;;;;;;;;9.32;100.00;100074.63;10456623;28;19928;-67
2023/03/24 21:35:03;;;;;;;;;;;;;;;9.39;100.00;100065.44;10457603;28;19925;-67
2023/03/24 21:40:08;;;;;;;;;;;;;;;9.52;100.00;100067.28;10456842;28;19933;-67
2023/03/24 21:45:15;;;;;;;;;;;;;;;9.21;100.00;100070.09;10439397;28;20269;-67
2023/03/24 21:50:21;;;;;;;;;;;;;;;9.39;100.00;100077.69;10455821;28;19979;-67
2023/03/24 21:55:25;;;;;;;;;;;;;;;9.18;100.00;100074.66;10457139;28;20296;-67
2023/03/24 22:00:29;;;;;;;;;;;;;;;9.19;100.00;100073.72;10460225;22;19925;-63
2023/03/24 22:05:34;;;;;;;;;;;;;;;9.18;100.00;100088.56;10424110;28;19925;-63
2023/03/24 22:10:41;;;;;;;;;;;;;;;9.30;100.00;100073.88;10433054;28;19955;-64
2023/03/24 22:15:43;;;;;;;;;;;;;;;9.27;100.00;100077.53;10461227;28;20343;-64
2023/03/24 22:20:51;;;;;;;;;;;;;;;9.34;100.00;100082.38;10464722;28;19951;-63
2023/03/24 22:25:53;;;;;;;;;;;;;;;9.24;100.00;100082.09;10462676;28;19932;-63
2023/03/24 22:31:02;;;;;;;;;;;;;;;9.32;100.00;100084.25;10464527;28;19929;-63
2023/03/24 22:36:04;;;;;;;;;;;;;;;9.10;100.00;100082.97;10463607;28;20330;-63
2023/03/24 22:41:08;;;;;;;;;;;;;;;9.14;100.00;100081.84;10461376;28;20371;-63
2023/03/24 22:46:11;;;;;;;;;;;;;;;9.35;100.00;100087.50;10446311;28;19936;-63
2023/03/24 22:51:18;;;;;;;;;;;;;;;9.10;100.00;100085.59;10445437;28;19994;-63
2023/03/24 22:56:20;;;;;;;;;;;;;;;9.37;100.00;100090.84;10461484;28;20373;-63
2023/03/24 23:01:22;;;;;;;;;;;;;;;9.13;100.00;100097.59;10445076;28;19975;-63
2023/03/24 23:06:26;;;;;;;;;;;;;;;9.07;100.00;100096.22;10459506;28;20283;-65
2023/03/24 23:11:28;;;;;;;;;;;;;;;9.06;100.00;100095.41;10444894;28;19932;-63
2023/03/24 23:16:36;;;;;;;;;;;;;;;9.01;100.00;100091.38;10462020;28;20264;-63
2023/03/24 23:21:38;;;;;;;;;;;;;;;9.18;100.00;100088.56;10461556;28;19924;-63
2023/03/24 23:26:41;;;;;;;;;;;;;;;8.99;100.00;100098.47;10461739;28;19929;-63
2023/03/24 23:31:43;;;;;;;;;;;;;;;9.31;100.00;100091.22;10461512;28;19925;-64
2023/03/24 23:36:48;;;;;;;;;;;;;;;9.04;100.00;100094.63;10459072;28;19925;-63
2023/03/24 23:41:50;;;;;;;;;;;;;;;9.03;100.00;100098.19;10460183;28;19928;-63
2023/03/24 23:46:53;;;;;;;;;;;;;;;9.04;100.00;100093.78;10461525;28;19975;-64
2023/03/24 23:51:55;;;;;;;;;;;;;;;9.04;100.00;100099.03;10459651;28;19925;-63
2023/03/24 23:56:57;;;;;;;;;;;;;;;9.22;100.00;100090.03;10460366;28;19932;-63
